createdAt,value
2017-09-20T00:01:57.783Z,11.00
2017-09-20T00:04:27.265Z,11.00
2017-09-20T00:06:56.950Z,11.00
2017-09-20T00:09:26.469Z,10.90
2017-09-20T00:11:56.170Z,10.90
2017-09-20T00:14:26.422Z,10.90
2017-09-20T00:16:56.110Z,10.90
2017-09-20T00:19:26.599Z,10.80
2017-09-20T00:21:56.254Z,10.80
2017-09-20T00:24:25.954Z,10.90
2017-09-20T00:26:56.423Z,10.80
2017-09-20T00:29:26.127Z,10.80
2017-09-20T00:31:55.498Z,10.80
2017-09-20T00:34:25.201Z,10.80
2017-09-20T00:36:55.676Z,10.70
2017-09-20T00:39:25.369Z,10.70
2017-09-20T00:41:55.665Z,10.80
2017-09-20T00:44:25.344Z,10.80
2017-09-20T00:46:55.039Z,10.80
2017-09-20T00:49:24.725Z,10.80
2017-09-20T00:51:54.856Z,10.80
2017-09-20T00:54:24.553Z,10.80
2017-09-20T00:56:54.337Z,10.80
2017-09-20T00:59:23.157Z,10.80
2017-09-20T01:01:53.600Z,10.70
2017-09-20T01:04:23.282Z,10.70
2017-09-20T01:06:53.589Z,10.80
2017-09-20T01:09:22.599Z,10.70
2017-09-20T01:11:53.080Z,10.70
2017-09-20T01:14:22.437Z,10.70
2017-09-20T01:16:52.917Z,10.70
2017-09-20T01:19:22.236Z,10.70
2017-09-20T01:22:03.118Z,10.70
2017-09-20T01:24:32.282Z,10.70
2017-09-20T01:27:01.115Z,10.70
2017-09-20T01:29:30.603Z,10.60
2017-09-20T01:32:00.302Z,10.60
2017-09-20T01:34:29.978Z,10.60
2017-09-20T01:36:59.673Z,10.60
2017-09-20T01:39:29.367Z,10.60
2017-09-20T01:41:58.726Z,10.50
2017-09-20T01:44:28.476Z,10.50
2017-09-20T01:46:57.847Z,10.50
2017-09-20T01:49:27.538Z,10.50
2017-09-20T01:51:57.249Z,10.50
2017-09-20T01:54:26.970Z,10.50
2017-09-20T01:56:56.714Z,10.50
2017-09-20T01:59:26.389Z,10.40
2017-09-20T02:01:56.107Z,10.40
2017-09-20T02:04:25.843Z,10.40
2017-09-20T02:06:55.530Z,10.40
2017-09-20T02:09:25.982Z,10.40
2017-09-20T02:11:55.680Z,10.30
2017-09-20T02:14:25.494Z,10.40
2017-09-20T02:16:55.204Z,10.40
2017-09-20T02:19:24.879Z,10.40
2017-09-20T02:21:55.383Z,10.40
2017-09-20T02:24:25.095Z,10.40
2017-09-20T02:26:54.799Z,10.30
2017-09-20T02:29:24.490Z,10.30
2017-09-20T02:31:53.828Z,10.30
2017-09-20T02:34:24.318Z,10.30
2017-09-20T02:36:53.659Z,10.30
2017-09-20T02:39:23.772Z,10.20
2017-09-20T02:41:53.108Z,10.20
2017-09-20T02:44:22.448Z,10.10
2017-09-20T02:46:51.813Z,10.10
2017-09-20T02:49:20.975Z,10.00
2017-09-20T02:51:50.122Z,10.00
2017-09-20T02:54:19.122Z,9.90
2017-09-20T02:56:48.789Z,9.90
2017-09-20T02:59:18.150Z,10.00
2017-09-20T03:01:48.586Z,9.90
2017-09-20T03:04:19.046Z,9.90
2017-09-20T03:06:48.713Z,9.90
2017-09-20T03:09:19.001Z,9.80
2017-09-20T03:11:48.668Z,9.80
2017-09-20T03:14:18.356Z,9.70
2017-09-20T03:16:48.041Z,9.70
2017-09-20T03:19:17.732Z,9.60
2017-09-20T03:21:47.422Z,9.60
2017-09-20T03:24:17.084Z,9.60
2017-09-20T03:26:46.791Z,9.50
2017-09-20T03:29:16.466Z,9.50
2017-09-20T03:31:46.166Z,9.50
2017-09-20T03:34:16.000Z,9.50
2017-09-20T03:36:46.454Z,9.50
2017-09-20T03:39:16.109Z,9.50
2017-09-20T03:41:45.808Z,9.60
2017-09-20T03:44:15.482Z,9.60
2017-09-20T03:46:44.992Z,9.60
2017-09-20T03:49:14.660Z,9.70
2017-09-20T03:51:44.358Z,9.70
2017-09-20T03:54:14.034Z,9.70
2017-09-20T03:56:43.730Z,9.70
2017-09-20T03:59:13.424Z,9.80
2017-09-20T04:01:43.115Z,9.80
2017-09-20T04:04:13.871Z,9.80
2017-09-20T04:06:43.559Z,9.80
2017-09-20T04:09:14.018Z,9.80
2017-09-20T04:11:43.510Z,9.80
2017-09-20T04:14:13.182Z,9.90
2017-09-20T04:16:42.870Z,9.90
2017-09-20T04:19:12.566Z,10.00
2017-09-20T04:21:42.249Z,10.00
2017-09-20T04:24:11.941Z,10.00
2017-09-20T04:26:42.436Z,10.00
2017-09-20T04:29:12.135Z,10.00
2017-09-20T04:31:41.833Z,10.00
2017-09-20T04:34:11.188Z,10.00
2017-09-20T04:36:41.733Z,10.10
2017-09-20T04:39:11.431Z,10.10
2017-09-20T04:41:41.872Z,10.20
2017-09-20T04:44:11.568Z,10.10
2017-09-20T04:46:42.030Z,10.20
2017-09-20T04:49:11.706Z,10.20
2017-09-20T04:51:42.298Z,10.30
2017-09-20T04:54:12.024Z,10.20
2017-09-20T04:56:41.700Z,10.30
2017-09-20T04:59:11.396Z,10.40
2017-09-20T05:01:41.040Z,10.50
2017-09-20T05:04:10.728Z,10.60
2017-09-20T05:06:40.396Z,10.60
2017-09-20T05:09:10.867Z,10.70
2017-09-20T05:11:41.315Z,10.70
2017-09-20T05:14:11.009Z,10.70
2017-09-20T05:16:40.710Z,10.80
2017-09-20T05:19:10.430Z,10.80
2017-09-20T05:21:40.135Z,10.90
2017-09-20T05:24:09.850Z,10.90
2017-09-20T05:26:39.519Z,11.00
2017-09-20T05:29:09.991Z,10.90
2017-09-20T05:31:39.473Z,10.90
2017-09-20T05:34:08.990Z,10.90
2017-09-20T05:36:38.686Z,10.90
2017-09-20T05:39:08.166Z,10.90
2017-09-20T05:41:38.620Z,10.80
2017-09-20T05:44:08.370Z,10.80
2017-09-20T05:46:38.066Z,10.80
2017-09-20T05:49:07.747Z,10.90
2017-09-20T05:51:37.465Z,10.90
2017-09-20T05:54:06.820Z,11.00
2017-09-20T05:56:36.517Z,11.00
2017-09-20T05:59:06.206Z,11.00
2017-09-20T06:01:35.901Z,11.00
2017-09-20T06:04:05.574Z,11.10
2017-09-20T06:06:36.029Z,11.30
2017-09-20T06:09:05.022Z,11.30
2017-09-20T06:11:34.760Z,11.50
2017-09-20T06:14:04.488Z,11.50
2017-09-20T06:16:34.200Z,11.50
2017-09-20T06:19:03.883Z,11.40
2017-09-20T06:21:33.594Z,11.60
2017-09-20T06:24:03.277Z,11.60
2017-09-20T06:26:32.980Z,11.60
2017-09-20T06:29:03.405Z,11.80
2017-09-20T06:31:34.638Z,11.80
2017-09-20T06:34:04.312Z,11.80
2017-09-20T06:36:34.010Z,11.70
2017-09-20T06:39:03.146Z,11.70
2017-09-20T06:41:33.411Z,11.80
2017-09-20T06:44:03.081Z,11.80
2017-09-20T06:46:32.761Z,11.90
2017-09-20T06:49:02.444Z,11.90
2017-09-20T06:51:32.133Z,12.00
2017-09-20T06:54:02.395Z,12.10
2017-09-20T06:56:32.080Z,12.10
2017-09-20T06:59:01.781Z,12.10
2017-09-20T07:01:32.241Z,12.20
2017-09-20T07:04:01.949Z,12.20
2017-09-20T07:06:32.117Z,12.30
2017-09-20T07:09:01.900Z,12.50
2017-09-20T07:11:32.353Z,12.90
2017-09-20T07:14:02.152Z,13.20
2017-09-20T07:16:31.805Z,13.40
2017-09-20T07:19:01.553Z,13.40
2017-09-20T07:21:31.257Z,13.50
2017-09-20T07:24:00.936Z,13.80
2017-09-20T07:26:30.627Z,14.10
2017-09-20T07:29:01.102Z,14.50
2017-09-20T07:31:30.789Z,14.50
2017-09-20T07:34:00.489Z,14.70
2017-09-20T07:36:30.619Z,15.10
2017-09-20T07:38:59.980Z,15.10
2017-09-20T07:41:29.658Z,15.40
2017-09-20T07:43:59.416Z,15.60
2017-09-20T07:46:29.394Z,16.00
2017-09-20T07:48:59.180Z,16.40
2017-09-20T07:51:28.858Z,16.60
2017-09-20T07:53:58.546Z,16.60
2017-09-20T07:56:28.898Z,16.80
2017-09-20T07:58:58.687Z,16.70
2017-09-20T08:01:29.190Z,16.80
2017-09-20T08:03:59.725Z,16.30
2017-09-20T08:06:29.638Z,16.30
2017-09-20T08:08:59.654Z,15.90
2017-09-20T08:11:29.619Z,15.90
2017-09-20T08:14:00.201Z,16.10
2017-09-20T08:16:30.217Z,16.10
2017-09-20T08:18:59.944Z,16.20
2017-09-20T08:21:29.427Z,16.20
2017-09-20T08:23:59.138Z,16.40
2017-09-20T08:26:28.627Z,16.60
2017-09-20T08:28:58.323Z,16.60
2017-09-20T08:31:27.742Z,16.60
2017-09-20T08:33:57.199Z,16.80
2017-09-20T08:36:27.181Z,17.40
2017-09-20T08:38:56.432Z,17.40
2017-09-20T08:41:25.479Z,17.40
2017-09-20T08:43:54.746Z,17.70
2017-09-20T08:46:24.142Z,17.50
2017-09-20T08:48:53.529Z,17.30
2017-09-20T08:51:22.984Z,17.30
2017-09-20T08:53:52.423Z,17.30
2017-09-20T08:56:22.602Z,17.90
2017-09-20T08:58:51.992Z,17.80
2017-09-20T09:01:21.410Z,18.00
2017-09-20T09:03:50.817Z,18.10
2017-09-20T09:06:20.278Z,18.50
2017-09-20T09:08:49.671Z,18.40
2017-09-20T09:11:19.102Z,18.80
2017-09-20T09:13:48.350Z,19.00
2017-09-20T09:16:18.556Z,19.40
2017-09-20T09:18:47.975Z,19.40
2017-09-20T09:21:18.218Z,19.40
2017-09-20T09:23:48.387Z,19.40
2017-09-20T09:26:17.607Z,19.40
2017-09-20T09:28:46.999Z,19.10
2017-09-20T09:31:16.478Z,19.20
2017-09-20T09:33:45.918Z,19.10
2017-09-20T09:36:15.160Z,18.80
2017-09-20T09:38:44.659Z,18.40
2017-09-20T09:41:15.789Z,17.90
2017-09-20T09:43:45.803Z,17.80
2017-09-20T09:46:16.006Z,17.80
2017-09-20T09:48:46.391Z,17.80
2017-09-20T09:51:16.323Z,18.30
2017-09-20T09:53:45.737Z,18.30
2017-09-20T09:56:15.161Z,17.90
2017-09-20T09:58:44.865Z,17.50
2017-09-20T10:01:15.400Z,17.80
2017-09-20T10:03:45.575Z,18.10
2017-09-20T10:06:14.793Z,18.10
2017-09-20T10:08:44.037Z,18.20
2017-09-20T10:11:14.197Z,18.00
2017-09-20T10:13:43.614Z,17.90
2017-09-20T10:16:13.001Z,18.30
2017-09-20T10:18:42.419Z,18.30
2017-09-20T10:21:11.807Z,18.10
2017-09-20T10:23:41.244Z,18.80
2017-09-20T10:26:10.638Z,19.70
2017-09-20T10:28:40.032Z,20.60
2017-09-20T10:31:09.522Z,21.00
2017-09-20T10:33:39.155Z,21.10
2017-09-20T10:36:08.362Z,20.90
2017-09-20T10:38:40.456Z,19.90
2017-09-20T10:41:10.791Z,19.70
2017-09-20T10:43:40.993Z,19.40
2017-09-20T10:46:11.186Z,18.60
2017-09-20T10:48:40.819Z,18.60
2017-09-20T10:51:09.914Z,17.90
2017-09-20T10:53:40.114Z,16.80
2017-09-20T10:56:09.511Z,16.80
2017-09-20T10:58:39.253Z,16.20
2017-09-20T11:01:08.956Z,15.90
2017-09-20T11:03:38.631Z,15.40
2017-09-20T11:06:08.297Z,15.00
2017-09-20T11:08:37.978Z,14.90
2017-09-20T11:11:07.691Z,14.80
2017-09-20T11:13:37.378Z,14.80
2017-09-20T11:16:07.050Z,14.90
2017-09-20T11:18:37.286Z,15.80
2017-09-20T11:21:07.009Z,15.80
2017-09-20T11:23:37.449Z,17.60
2017-09-20T11:26:06.682Z,17.60
2017-09-20T11:28:36.081Z,18.70
2017-09-20T11:31:05.586Z,19.70
2017-09-20T11:33:34.988Z,20.10
2017-09-20T11:36:04.467Z,20.60
2017-09-20T11:38:33.886Z,21.30
2017-09-20T11:41:03.108Z,21.40
2017-09-20T11:43:32.669Z,22.20
2017-09-20T11:46:02.120Z,22.40
2017-09-20T11:48:32.281Z,22.40
2017-09-20T11:51:01.942Z,22.40
2017-09-20T11:53:31.336Z,22.40
2017-09-20T11:56:00.744Z,21.80
2017-09-20T11:58:31.388Z,20.20
2017-09-20T12:01:01.569Z,20.00
2017-09-20T12:03:30.997Z,20.00
2017-09-20T12:06:00.430Z,19.80
2017-09-20T12:08:30.594Z,20.10
2017-09-20T12:11:01.328Z,20.00
2017-09-20T12:13:30.758Z,20.70
2017-09-20T12:16:00.187Z,21.00
2017-09-20T12:18:30.342Z,20.40
2017-09-20T12:20:59.773Z,20.40
2017-09-20T12:23:29.174Z,20.10
2017-09-20T12:25:58.583Z,20.10
2017-09-20T12:28:27.976Z,20.10
2017-09-20T12:30:57.232Z,19.40
2017-09-20T12:33:27.451Z,18.80
2017-09-20T12:35:57.620Z,18.50
2017-09-20T12:38:27.019Z,18.50
2017-09-20T12:40:56.533Z,18.60
2017-09-20T12:43:25.953Z,18.50
2017-09-20T12:45:55.355Z,18.50
2017-09-20T12:48:24.769Z,18.40
2017-09-20T12:50:54.974Z,18.10
2017-09-20T12:53:24.187Z,18.10
2017-09-20T12:55:53.637Z,18.00
2017-09-20T12:58:23.055Z,17.60
2017-09-20T13:00:52.443Z,17.30
2017-09-20T13:03:21.868Z,17.10
2017-09-20T13:05:52.314Z,16.70
2017-09-20T13:08:21.727Z,16.70
2017-09-20T13:10:51.401Z,16.60
2017-09-20T13:13:20.850Z,16.70
2017-09-20T13:15:50.517Z,16.80
2017-09-20T13:18:19.955Z,16.80
2017-09-20T13:20:49.667Z,16.80
2017-09-20T13:23:19.096Z,16.90
2017-09-20T13:25:49.267Z,17.10
2017-09-20T13:28:18.947Z,17.10
2017-09-20T13:30:48.391Z,17.20
2017-09-20T13:33:17.824Z,17.30
2017-09-20T13:35:47.976Z,17.80
2017-09-20T13:38:17.413Z,17.80
2017-09-20T13:40:46.827Z,18.70
2017-09-20T13:43:16.224Z,20.20
2017-09-20T13:45:45.614Z,22.30
2017-09-20T13:48:15.029Z,24.30
2017-09-20T13:50:44.415Z,24.00
2017-09-20T13:53:13.826Z,22.40
2017-09-20T13:55:43.224Z,21.00
2017-09-20T13:58:12.643Z,19.80
2017-09-20T14:00:42.052Z,19.00
2017-09-20T14:03:11.453Z,18.30
2017-09-20T14:05:40.860Z,17.70
2017-09-20T14:08:10.264Z,17.30
2017-09-20T14:10:39.454Z,16.90
2017-09-20T14:13:08.891Z,16.70
2017-09-20T14:15:39.052Z,16.60
2017-09-20T14:18:09.504Z,16.60
2017-09-20T14:20:39.182Z,16.60
2017-09-20T14:23:09.637Z,16.60
2017-09-20T14:25:40.490Z,16.60
2017-09-20T14:28:09.929Z,16.70
2017-09-20T14:30:39.330Z,16.80
2017-09-20T14:33:09.597Z,17.70
2017-09-20T14:35:38.985Z,17.70
2017-09-20T14:38:08.393Z,18.20
2017-09-20T14:40:37.794Z,18.90
2017-09-20T14:43:07.192Z,20.10
2017-09-20T14:45:36.622Z,21.00
2017-09-20T14:48:06.010Z,21.70
2017-09-20T14:50:35.427Z,22.10
2017-09-20T14:53:04.816Z,23.50
2017-09-20T14:55:34.209Z,24.00
2017-09-20T14:58:03.604Z,23.70
2017-09-20T15:00:33.018Z,24.00
2017-09-20T15:03:02.428Z,23.90
2017-09-20T15:05:31.849Z,24.10
2017-09-20T15:08:00.898Z,23.90
2017-09-20T15:10:30.119Z,23.00
2017-09-20T15:12:59.550Z,21.90
2017-09-20T15:15:28.797Z,21.00
2017-09-20T15:17:58.966Z,20.70
2017-09-20T15:20:28.398Z,20.70
2017-09-20T15:22:57.789Z,20.60
2017-09-20T15:25:27.227Z,20.40
2017-09-20T15:27:56.742Z,20.10
2017-09-20T15:30:26.137Z,19.60
2017-09-20T15:32:56.233Z,19.30
2017-09-20T15:35:25.633Z,18.70
2017-09-20T15:37:55.616Z,18.20
2017-09-20T15:40:25.061Z,18.20
2017-09-20T15:42:54.482Z,18.10
2017-09-20T15:45:24.636Z,17.90
2017-09-20T15:47:54.037Z,17.90
2017-09-20T15:50:23.428Z,18.00
2017-09-20T15:52:52.856Z,18.40
2017-09-20T15:55:22.253Z,18.70
2017-09-20T15:57:51.679Z,18.60
2017-09-20T16:00:21.087Z,18.50
2017-09-20T16:02:50.303Z,18.10
2017-09-20T16:05:20.470Z,17.60
2017-09-20T16:07:49.907Z,17.60
2017-09-20T16:10:19.299Z,17.50
2017-09-20T16:12:48.538Z,17.30
2017-09-20T16:15:18.698Z,17.10
2017-09-20T16:17:48.153Z,17.10
2017-09-20T16:20:17.539Z,17.00
2017-09-20T16:22:46.948Z,17.00
2017-09-20T16:25:16.389Z,17.10
2017-09-20T16:27:51.574Z,16.90
2017-09-20T16:30:20.785Z,16.90
2017-09-20T16:32:50.482Z,16.80
2017-09-20T16:35:20.134Z,16.80
2017-09-20T16:37:50.330Z,16.60
2017-09-20T16:40:22.402Z,16.60
2017-09-20T16:42:52.065Z,16.40
2017-09-20T16:45:22.512Z,16.30
2017-09-20T16:47:51.836Z,16.20
2017-09-20T16:50:21.499Z,16.10
2017-09-20T16:52:51.950Z,16.00
2017-09-20T16:55:21.270Z,16.00
2017-09-20T16:57:50.947Z,15.90
2017-09-20T17:00:20.693Z,15.70
2017-09-20T17:02:49.991Z,15.70
2017-09-20T17:05:19.762Z,15.80
2017-09-20T17:07:50.244Z,15.70
2017-09-20T17:10:19.926Z,15.60
2017-09-20T17:12:49.621Z,15.60
2017-09-20T17:15:20.065Z,15.60
2017-09-20T17:17:49.727Z,15.50
2017-09-20T17:20:19.405Z,15.50
2017-09-20T17:22:49.067Z,15.40
2017-09-20T17:25:19.541Z,15.30
2017-09-20T17:27:49.221Z,15.30
2017-09-20T17:30:18.926Z,15.20
2017-09-20T17:32:49.366Z,15.10
2017-09-20T17:35:19.063Z,15.10
2017-09-20T17:37:49.488Z,15.10
2017-09-20T17:40:19.193Z,15.10
2017-09-20T17:42:48.847Z,15.00
2017-09-20T17:45:18.668Z,14.90
2017-09-20T17:47:48.334Z,14.90
2017-09-20T17:50:18.040Z,14.90
2017-09-20T17:52:47.705Z,15.00
2017-09-20T17:55:17.380Z,14.90
2017-09-20T17:57:47.076Z,14.90
2017-09-20T18:00:16.741Z,14.90
2017-09-20T18:02:46.220Z,14.90
2017-09-20T18:05:15.883Z,14.90
2017-09-20T18:07:45.563Z,14.90
2017-09-20T18:10:16.216Z,14.80
2017-09-20T18:12:46.650Z,14.70
2017-09-20T18:15:16.338Z,14.70
2017-09-20T18:17:47.036Z,14.70
2017-09-20T18:20:16.686Z,14.70
2017-09-20T18:22:46.372Z,14.70
2017-09-20T18:25:16.089Z,14.70
2017-09-20T18:27:46.012Z,14.60
2017-09-20T18:30:15.692Z,14.60
2017-09-20T18:32:45.420Z,14.60
2017-09-20T18:35:15.073Z,14.60
2017-09-20T18:37:45.574Z,14.50
2017-09-20T18:40:15.245Z,14.50
2017-09-20T18:42:44.657Z,14.60
2017-09-20T18:45:14.313Z,14.60
2017-09-20T18:47:43.997Z,14.50
2017-09-20T18:50:13.672Z,14.50
2017-09-20T18:52:43.368Z,14.50
2017-09-20T18:55:13.049Z,14.50
2017-09-20T18:57:43.496Z,14.50
2017-09-20T19:00:13.933Z,14.60
2017-09-20T19:02:43.395Z,14.50
2017-09-20T19:05:13.859Z,14.40
2017-09-20T19:07:44.313Z,14.50
2017-09-20T19:10:13.999Z,14.50
2017-09-20T19:12:44.428Z,14.50
2017-09-20T19:15:14.374Z,14.40
2017-09-20T19:17:44.083Z,14.50
2017-09-20T19:20:13.764Z,14.50
2017-09-20T19:22:43.437Z,14.40
2017-09-20T19:25:13.593Z,14.40
2017-09-20T19:27:44.021Z,14.40
2017-09-20T19:30:13.726Z,14.40
2017-09-20T19:32:44.236Z,14.30
2017-09-20T19:35:13.918Z,14.20
2017-09-20T19:37:43.684Z,14.30
2017-09-20T19:40:13.368Z,14.30
2017-09-20T19:42:43.107Z,14.30
2017-09-20T19:45:12.632Z,14.20
2017-09-20T19:47:42.293Z,14.20
2017-09-20T19:50:12.772Z,14.20
2017-09-20T19:52:42.244Z,14.20
2017-09-20T19:55:12.016Z,14.20
2017-09-20T19:57:41.694Z,14.10
2017-09-20T20:00:10.697Z,14.10
2017-09-20T20:02:40.026Z,14.10
2017-09-20T20:05:09.507Z,14.10
2017-09-20T20:07:39.198Z,14.00
2017-09-20T20:10:08.881Z,14.00
2017-09-20T20:12:38.697Z,14.00
2017-09-20T20:15:09.140Z,14.00
2017-09-20T20:17:38.894Z,14.00
2017-09-20T20:20:08.399Z,14.10
2017-09-20T20:22:37.908Z,14.00
2017-09-20T20:25:07.380Z,14.00
2017-09-20T20:27:37.046Z,14.00
2017-09-20T20:30:07.501Z,14.00
2017-09-20T20:32:37.201Z,14.00
2017-09-20T20:35:07.639Z,14.00
2017-09-20T20:37:38.101Z,14.00
2017-09-20T20:40:07.589Z,14.00
2017-09-20T20:42:37.286Z,14.00
2017-09-20T20:45:06.968Z,14.00
2017-09-20T20:47:36.654Z,14.00
2017-09-20T20:50:06.317Z,14.00
2017-09-20T20:52:36.038Z,14.00
2017-09-20T20:55:05.728Z,14.00
2017-09-20T20:57:35.415Z,14.00
2017-09-20T21:00:05.523Z,14.00
2017-09-20T21:02:36.047Z,14.00
2017-09-20T21:05:05.710Z,13.90
2017-09-20T21:07:35.407Z,14.00
2017-09-20T21:10:04.865Z,14.00
2017-09-20T21:12:34.548Z,14.00
2017-09-20T21:15:04.046Z,14.00
2017-09-20T21:17:33.556Z,14.00
2017-09-20T21:20:03.067Z,14.00
2017-09-20T21:22:32.552Z,14.00
2017-09-20T21:25:02.247Z,13.90
2017-09-20T21:27:32.700Z,13.90
2017-09-20T21:30:02.382Z,13.90
2017-09-20T21:32:32.820Z,14.00
2017-09-20T21:35:02.515Z,13.90
2017-09-20T21:37:32.961Z,13.90
2017-09-20T21:40:02.646Z,13.90
2017-09-20T21:42:33.115Z,13.90
2017-09-20T21:45:02.798Z,13.90
2017-09-20T21:47:33.224Z,13.90
2017-09-20T21:50:03.662Z,13.90
2017-09-20T21:52:33.334Z,13.90
2017-09-20T21:55:03.785Z,13.90
2017-09-20T21:57:34.245Z,13.90
2017-09-20T22:00:03.256Z,13.90
2017-09-20T22:02:32.716Z,13.90
2017-09-20T22:05:02.205Z,13.90
2017-09-20T22:07:31.890Z,13.90
2017-09-20T22:10:01.603Z,13.90
2017-09-20T22:12:31.295Z,13.90
2017-09-20T22:15:12.140Z,13.90
2017-09-20T22:17:59.515Z,13.90
2017-09-20T22:20:46.136Z,13.90
2017-09-20T22:23:32.674Z,13.90
2017-09-20T22:26:19.171Z,13.90
2017-09-20T22:28:55.149Z,13.90
2017-09-20T22:31:24.450Z,13.90
2017-09-20T22:33:54.132Z,13.90
2017-09-20T22:36:24.603Z,13.80
2017-09-20T22:38:54.299Z,13.80
2017-09-20T22:41:24.039Z,13.70
2017-09-20T22:43:53.719Z,13.70
2017-09-20T22:46:23.447Z,13.70
2017-09-20T22:48:53.118Z,13.70
2017-09-20T22:51:22.786Z,13.70
2017-09-20T22:53:52.464Z,13.70
2017-09-20T22:56:22.134Z,13.60
2017-09-20T22:58:54.861Z,13.50
2017-09-20T23:01:24.412Z,13.50
2017-09-20T23:03:54.110Z,13.50
2017-09-20T23:06:24.555Z,13.50
2017-09-20T23:08:54.785Z,13.50
2017-09-20T23:11:24.479Z,13.50
2017-09-20T23:13:54.954Z,13.50
2017-09-20T23:16:24.624Z,13.50
2017-09-20T23:18:55.095Z,13.40
2017-09-20T23:21:24.835Z,13.40
2017-09-20T23:23:53.794Z,13.50
2017-09-20T23:26:23.462Z,13.40
2017-09-20T23:28:53.763Z,13.40
2017-09-20T23:31:23.423Z,13.40
2017-09-20T23:33:52.884Z,13.40
2017-09-20T23:36:23.383Z,13.40
2017-09-20T23:38:53.054Z,13.40
2017-09-20T23:41:22.892Z,13.40
2017-09-20T23:43:52.605Z,13.40
2017-09-20T23:46:22.076Z,13.40
2017-09-20T23:48:52.519Z,13.30
2017-09-20T23:51:22.202Z,13.30
2017-09-20T23:53:51.892Z,13.30
2017-09-20T23:56:21.576Z,13.20
2017-09-20T23:58:51.240Z,13.30
